Aviation Digital Data Service (ADDS)

Output produced by METARs form (0711 UTC 19 February 2019)
found at http://www.aviationweather.gov/metar/data/
 
METAR text: RJOZ 190653Z 27023G34KT 9999 FEW007 SCT015 BKN030 17/15 Q1011 RMK 1ST007 3CU015 7CU030 A2987
Conditions at: RJOZ (OZUKI (JMSDF) , JP) observed 0653 UTC 19 February 2019
Temperature: 17.0°C (63°F)
Dewpoint: 15.0°C (59°F) [RH = 88%]
Pressure (altimeter): 29.85 inches Hg (1011.0 mb)
Winds: from the W (270 degrees) at 26 MPH (23 knots; 11.8 m/s)
gusting to 39 MPH (34 knots; 17.5 m/s)
Visibility: 6 or more miles (10+ km)
Ceiling: 3000 feet AGL
Clouds: few clouds at 700 feet AGL
scattered clouds at 1500 feet AGL
broken clouds at 3000 feet AGL
Weather: no significant weather observed at this time

METAR text: RJOZ 190645Z 27013G33KT 230V320 9999 FEW007 SCT015 BKN030 16/14 Q1011 RMK 1ST007 3CU015 7CU030 A2987
Conditions at: RJOZ (OZUKI (JMSDF) , JP) observed 0645 UTC 19 February 2019
Temperature: 16.0°C (61°F)
Dewpoint: 14.0°C (57°F) [RH = 88%]
Pressure (altimeter): 29.85 inches Hg (1011.0 mb)
Winds: from the W (270 degrees) at 15 MPH (13 knots; 6.7 m/s)
gusting to 38 MPH (33 knots; 17.0 m/s)
Visibility: 6 or more miles (10+ km)
Ceiling: 3000 feet AGL
Clouds: few clouds at 700 feet AGL
scattered clouds at 1500 feet AGL
broken clouds at 3000 feet AGL
Weather: no significant weather observed at this time

METAR text: RJOZ 190512Z 30004KT 260V360 9999 FEW007 SCT015 BKN030 14/13 Q1010 RMK 2ST007 4CU015 7CU030 A2984
Conditions at: RJOZ (OZUKI (JMSDF) , JP) observed 0512 UTC 19 February 2019
Temperature: 14.0°C (57°F)
Dewpoint: 13.0°C (55°F) [RH = 94%]
Pressure (altimeter): 29.82 inches Hg (1010.0 mb)
Winds: from the WNW (300 degrees) at 5 MPH (4 knots; 2.1 m/s)
Visibility: 6 or more miles (10+ km)
Ceiling: 3000 feet AGL
Clouds: few clouds at 700 feet AGL
scattered clouds at 1500 feet AGL
broken clouds at 3000 feet AGL
Weather: no significant weather observed at this time

METAR text: RJOZ 190412Z 08008KT 9999 FEW003 SCT007 BKN015 13/13 Q1010 RMK 1ST003 4ST007 7CU015 A2985
Conditions at: RJOZ (OZUKI (JMSDF) , JP) observed 0412 UTC 19 February 2019
Temperature: 13.0°C (55°F)
Dewpoint: 13.0°C (55°F) [RH = 100%]
Pressure (altimeter): 29.82 inches Hg (1010.0 mb)
Winds: from the E (80 degrees) at 9 MPH (8 knots; 4.1 m/s)
Visibility: 6 or more miles (10+ km)
Ceiling: 1500 feet AGL
Clouds: few clouds at 300 feet AGL
scattered clouds at 700 feet AGL
broken clouds at 1500 feet AGL
Weather: no significant weather observed at this time

METAR text: RJOZ 190323Z 09003KT 5000 -SHRA BR FEW003 BKN007 OVC015 12/11 Q1012 RMK 1ST003 5ST007 8CU015 A2990
Conditions at: RJOZ (OZUKI (JMSDF) , JP) observed 0323 UTC 19 February 2019
Temperature: 12.0°C (54°F)
Dewpoint: 11.0°C (52°F) [RH = 94%]
Pressure (altimeter): 29.88 inches Hg (1012.0 mb)
Winds: from the E (90 degrees) at 3 MPH (3 knots; 1.5 m/s)
Visibility: 3 miles ( 5 km)
Ceiling: 700 feet AGL
Clouds: few clouds at 300 feet AGL
broken clouds at 700 feet AGL
overcast cloud deck at 1500 feet AGL
Weather: -SHRA BR  (light rain showers, mist)

METAR text: RJOZ 190235Z 04004G14KT 4000 SHRA BR FEW003 BKN007 OVC015 12/11 Q1013 RMK 1ST003 6ST007 8CU015 A2993
Conditions at: RJOZ (OZUKI (JMSDF) , JP) observed 0235 UTC 19 February 2019
Temperature: 12.0°C (54°F)
Dewpoint: 11.0°C (52°F) [RH = 94%]
Pressure (altimeter): 29.91 inches Hg (1013.0 mb)
Winds: from the NE (40 degrees) at 5 MPH (4 knots; 2.1 m/s)
gusting to 16 MPH (14 knots; 7.2 m/s)
Visibility: 2.49 miles (4.01 km)
Ceiling: 700 feet AGL
Clouds: few clouds at 300 feet AGL
broken clouds at 700 feet AGL
overcast cloud deck at 1500 feet AGL
Weather: SHRA BR  (rain showers, mist)

METAR text: RJOZ 190151Z 10014G25KT 4900 SHRA BR FEW003 BKN007 OVC015 12/11 Q1013 RMK 1ST003 5ST007 8CU015 A2992
Conditions at: RJOZ (OZUKI (JMSDF) , JP) observed 0151 UTC 19 February 2019
Temperature: 12.0°C (54°F)
Dewpoint: 11.0°C (52°F) [RH = 94%]
Pressure (altimeter): 29.91 inches Hg (1013.0 mb)
Winds: from the E (100 degrees) at 16 MPH (14 knots; 7.2 m/s)
gusting to 29 MPH (25 knots; 12.9 m/s)
Visibility: 3 miles ( 5 km)
Ceiling: 700 feet AGL
Clouds: few clouds at 300 feet AGL
broken clouds at 700 feet AGL
overcast cloud deck at 1500 feet AGL
Weather: SHRA BR  (rain showers, mist)

METAR text: RJOZ 190125Z 11015G25KT 5000 -SHRA BR FEW003 BKN007 OVC015 11/10 Q1013 RMK 1ST003 5ST007 8CU015 A2993
Conditions at: RJOZ (OZUKI (JMSDF) , JP) observed 0125 UTC 19 February 2019
Temperature: 11.0°C (52°F)
Dewpoint: 10.0°C (50°F) [RH = 94%]
Pressure (altimeter): 29.91 inches Hg (1013.0 mb)
Winds: from the ESE (110 degrees) at 17 MPH (15 knots; 7.7 m/s)
gusting to 29 MPH (25 knots; 12.9 m/s)
Visibility: 3 miles ( 5 km)
Ceiling: 700 feet AGL
Clouds: few clouds at 300 feet AGL
broken clouds at 700 feet AGL
overcast cloud deck at 1500 feet AGL
Weather: -SHRA BR  (light rain showers, mist)

METAR text: RJOZ 190119Z 11015G25KT 4900 SHRA BR FEW003 BKN007 OVC015 11/10 Q1013 RMK 1ST003 5ST007 8CU015 A2993
Conditions at: RJOZ (OZUKI (JMSDF) , JP) observed 0119 UTC 19 February 2019
Temperature: 11.0°C (52°F)
Dewpoint: 10.0°C (50°F) [RH = 94%]
Pressure (altimeter): 29.91 inches Hg (1013.0 mb)
Winds: from the ESE (110 degrees) at 17 MPH (15 knots; 7.7 m/s)
gusting to 29 MPH (25 knots; 12.9 m/s)
Visibility: 3 miles ( 5 km)
Ceiling: 700 feet AGL
Clouds: few clouds at 300 feet AGL
broken clouds at 700 feet AGL
overcast cloud deck at 1500 feet AGL
Weather: SHRA BR  (rain showers, mist)

METAR text: RJOZ 190011Z 12015G26KT 9999 -SHRA FEW003 BKN007 BKN015 11/10 Q1014 RMK 1ST003 5ST007 7CU015 A2995
Conditions at: RJOZ (OZUKI (JMSDF) , JP) observed 0011 UTC 19 February 2019
Temperature: 11.0°C (52°F)
Dewpoint: 10.0°C (50°F) [RH = 94%]
Pressure (altimeter): 29.94 inches Hg (1014.0 mb)
Winds: from the ESE (120 degrees) at 17 MPH (15 knots; 7.7 m/s)
gusting to 30 MPH (26 knots; 13.4 m/s)
Visibility: 6 or more miles (10+ km)
Ceiling: 700 feet AGL
Clouds: few clouds at 300 feet AGL
broken clouds at 700 feet AGL
broken clouds at 1500 feet AGL
Weather: -SHRA  (light rain showers)

METAR text: RJOZ 182323Z 11013KT 5000 -SHRA BR FEW003 BKN007 OVC012 10/09 Q1015 RMK 1ST003 7ST007 8CU012 A2998
Conditions at: RJOZ (OZUKI (JMSDF) , JP) observed 2323 UTC 18 February 2019
Temperature: 10.0°C (50°F)
Dewpoint: 9.0°C (48°F) [RH = 93%]
Pressure (altimeter): 29.97 inches Hg (1015.0 mb)
Winds: from the ESE (110 degrees) at 15 MPH (13 knots; 6.7 m/s)
Visibility: 3 miles ( 5 km)
Ceiling: 700 feet AGL
Clouds: few clouds at 300 feet AGL
broken clouds at 700 feet AGL
overcast cloud deck at 1200 feet AGL
Weather: -SHRA BR  (light rain showers, mist)

METAR text: RJOZ 182232Z 10009KT 4900 SHRA BR FEW003 BKN007 OVC012 09/09 Q1016 RMK 1ST003 7ST007 8CU012 A3003
Conditions at: RJOZ (OZUKI (JMSDF) , JP) observed 2232 UTC 18 February 2019
Temperature: 9.0°C (48°F)
Dewpoint: 9.0°C (48°F) [RH = 100%]
Pressure (altimeter): 30.00 inches Hg (1016.0 mb)
Winds: from the E (100 degrees) at 10 MPH (9 knots; 4.6 m/s)
Visibility: 3 miles ( 5 km)
Ceiling: 700 feet AGL
Clouds: few clouds at 300 feet AGL
broken clouds at 700 feet AGL
overcast cloud deck at 1200 feet AGL
Weather: SHRA BR  (rain showers, mist)

METAR text: RJOZ 182129Z 14005KT 6000 -SHRA FEW005 BKN007 OVC015 08/08 Q1018 RMK 1ST005 6ST007 8CU015 A3007
Conditions at: RJOZ (OZUKI (JMSDF) , JP) observed 2129 UTC 18 February 2019
Temperature: 8.0°C (46°F)
Dewpoint: 8.0°C (46°F) [RH = 100%]
Pressure (altimeter): 30.06 inches Hg (1018.0 mb)
Winds: from the SE (140 degrees) at 6 MPH (5 knots; 2.6 m/s)
Visibility: 4 miles ( 6 km)
Ceiling: 700 feet AGL
Clouds: few clouds at 500 feet AGL
broken clouds at 700 feet AGL
overcast cloud deck at 1500 feet AGL
Weather: -SHRA  (light rain showers)

METAR text: RJOZ 182048Z VRB02KT 5000 SHRA BR FEW005 BKN007 OVC015 08/07 Q1018 RMK 2ST005 6ST007 8CU015 A3008
Conditions at: RJOZ (OZUKI (JMSDF) , JP) observed 2048 UTC 18 February 2019
Temperature: 8.0°C (46°F)
Dewpoint: 7.0°C (45°F) [RH = 93%]
Pressure (altimeter): 30.06 inches Hg (1018.0 mb)
Winds: variable direction winds at 2 MPH (2 knots; 1.0 m/s)
Visibility: 3 miles ( 5 km)
Ceiling: 700 feet AGL
Clouds: few clouds at 500 feet AGL
broken clouds at 700 feet AGL
overcast cloud deck at 1500 feet AGL
Weather: SHRA BR  (rain showers, mist)

METAR text: RJOZ 182029Z VRB02KT 6000 -SHRA FEW005 BKN007 OVC015 08/07 Q1018 RMK 2ST005 5ST007 8CU015 A3009
Conditions at: RJOZ (OZUKI (JMSDF) , JP) observed 2029 UTC 18 February 2019
Temperature: 8.0°C (46°F)
Dewpoint: 7.0°C (45°F) [RH = 93%]
Pressure (altimeter): 30.06 inches Hg (1018.0 mb)
Winds: variable direction winds at 2 MPH (2 knots; 1.0 m/s)
Visibility: 4 miles ( 6 km)
Ceiling: 700 feet AGL
Clouds: few clouds at 500 feet AGL
broken clouds at 700 feet AGL
overcast cloud deck at 1500 feet AGL
Weather: -SHRA  (light rain showers)

METAR text: RJOZ 181927Z VRB01KT 7000 -RA FEW007 BKN015 OVC040 08/07 Q1020 RMK 1ST007 5CU015 8NS040 A3012
Conditions at: RJOZ (OZUKI (JMSDF) , JP) observed 1927 UTC 18 February 2019
Temperature: 8.0°C (46°F)
Dewpoint: 7.0°C (45°F) [RH = 93%]
Pressure (altimeter): 30.12 inches Hg (1020.0 mb)
Winds: variable direction winds at 1 MPH (1 knots; 0.5 m/s)
Visibility: 4 miles ( 7 km)
Ceiling: 1500 feet AGL
Clouds: few clouds at 700 feet AGL
broken clouds at 1500 feet AGL
overcast cloud deck at 4000 feet AGL
Weather: -RA  (light rain)